• Join FlightAware (Why Join?)
  • Login
  • US Flag 
09:47AM EST


 

Airport Tracker/Info


-or-


 

Live Flight TrackerFlight Track Log ✈ N8445X ✈ 09-May-2013 ✈ KMGW - KBKL

Flight Track Log - Related Links

Times and Time Zones

All times are in EDT time to prevent confusion due to time zone crossing. See the N8445X flight status page for this flight to view local times or setup timezone preferences in your user account.

Time Position Orientation Groundspeed Altitude Reporting Facility
EDT Latitude Longitude Course Direction KTS MPH feet Rate Location/Type
03:14PM 39.9095 -80.1601 325° Northwest  Level Estimated
03:15PM 39.9337 -80.1824 325° Northwest  Level Estimated
03:16PM 39.9579 -80.2047 325° Northwest  Level Estimated
03:17PM 39.9821 -80.2270 325° Northwest  Level Estimated
03:18PM 40.0063 -80.2493 325° Northwest  Level Estimated
03:19PM 40.0305 -80.2716 325° Northwest  Level Estimated
03:20PM 40.0547 -80.2940 325° Northwest  Level Estimated
03:21PM 40.0789 -80.3163 325° Northwest  Level Estimated
03:22PM 40.1031 -80.3387 325° Northwest  Level Estimated
03:23PM 40.1273 -80.3611 325° Northwest  Level Estimated
03:24PM 40.1514 -80.3835 325° Northwest  Level Estimated
03:25PM 40.1756 -80.4059 325° Northwest  Level Estimated
03:26PM 40.1997 -80.4283 325° Northwest  Level Estimated
03:27PM 40.2239 -80.4508 325° Northwest  Level Estimated
03:28PM 40.2481 -80.4733 325° Northwest  Level Estimated
03:29PM 40.2722 -80.4957 325° Northwest  Level Estimated
03:30PM 40.2964 -80.5182 325° Northwest  Level Estimated
03:31PM 40.3205 -80.5408 325° Northwest  Level Estimated
03:32PM 40.3446 -80.5633 325° Northwest  Level Estimated
03:33PM 40.3688 -80.5858 325° Northwest  Level Estimated
03:34PM 40.3929 -80.6084 325° Northwest  Level Estimated
03:35PM 40.4170 -80.6310 325° Northwest  Level Estimated
03:36PM 40.4411 -80.6536 325° Northwest  Level Estimated
03:37PM 40.4653 -80.6762 324° Northwest  Level Estimated
03:38PM 40.4894 -80.6988 324° Northwest  Level Estimated
03:39PM 40.5135 -80.7215 324° Northwest  Level Estimated
03:40PM 40.5376 -80.7441 324° Northwest  Level Estimated
03:41PM 40.5617 -80.7668 324° Northwest  Level Estimated
03:42PM 40.5858 -80.7895 324° Northwest  Level Estimated
03:43PM 40.6099 -80.8122 324° Northwest  Level Estimated
03:44PM 40.6339 -80.8350 324° Northwest  Level Estimated
03:45PM 40.6580 -80.8577 324° Northwest  Level Estimated
03:46PM 40.6821 -80.8804 324° Northwest  Level Estimated
03:47PM 40.7062 -80.9032 324° Northwest  Level Estimated
03:48PM 40.7302 -80.9260 324° Northwest  Level Estimated
03:49PM 40.7543 -80.9488 324° Northwest  Level Estimated
03:50PM 40.7784 -80.9717 324° Northwest  Level Estimated
03:51PM 40.8024 -80.9945 324° Northwest  Level Estimated
03:52PM 40.8265 -81.0174 324° Northwest  Level Estimated
03:53PM 40.8505 -81.0402 324° Northwest  Level Estimated
03:54PM 40.8745 -81.0631 324° Northwest  Level Estimated
03:55PM 40.8986 -81.0860 324° Northwest  Level Estimated
03:56PM 40.9226 -81.1090 324° Northwest  Level Estimated
03:57PM 40.9466 -81.1319 324° Northwest  Level Estimated
03:57PM 41.0556 -81.2136 324° Northwest 111 128 6,500  Level Cleveland Center
03:58PM 40.9706 -81.1549 324° Northwest  Level Estimated
03:58PM 41.0806 -81.2331 330° Northwest 104 120 6,500  Level Cleveland Center
03:59PM 40.9947 -81.1778 324° Northwest  Level Estimated
03:59PM 41.1033 -81.2556 323° Northwest 108 124 6,500  Level Cleveland Center
04:00PM 41.0187 -81.2008 324° Northwest  Level Estimated
04:00PM 41.1261 -81.2750 327° Northwest 107 123 6,700  Level Cleveland Center
04:01PM 41.0427 -81.2238 324° Northwest  Level Estimated
04:01PM 41.1553 -81.3000 327° Northwest 113 130 6,500  Level Cleveland Center
04:02PM 41.0667 -81.2469 324° Northwest  Level Estimated
04:02PM 41.1822 -81.3225 328° Northwest 106 122 6,600  Level Cleveland Center
04:03PM 41.0907 -81.2699 324° Northwest  Level Estimated
04:03PM 41.2069 -81.3450 326° Northwest 106 122 6,700  Level Cleveland Center
04:05PM 41.2319 -81.3672 326° Northwest 106 122 6,700 -240 Level Cleveland Center
04:06PM 41.2589 -81.3897 328° Northwest 105 121 6,200 -600 Descending Cleveland Center
04:07PM 41.2858 -81.4094 331° Northwest 105 121 5,500 -840 Descending Cleveland Center
04:08PM 41.3086 -81.4289 327° Northwest 102 117 4,500 -900 Descending Cleveland Center
04:09PM 41.3314 -81.4514 323° Northwest 104 120 3,700 -540 Descending Cleveland Center
04:10PM 41.3542 -81.4739 323° Northwest 105 121 3,500 -120 Descending Cleveland Center
04:11PM 41.3811 -81.4964 328° Northwest 102 117 3,500  Level Cleveland Center
04:12PM 41.4058 -81.5217 323° Northwest 101 116 3,500  Level Cleveland Center
04:13PM 41.4350 -81.5303 348° North 105 121 3,500  Level Cleveland Center
04:14PM 41.4578 -81.5472 331° Northwest 107 123 3,500 -300 Level Cleveland Center
04:15PM 41.4825 -81.5644 332° Northwest 99 114 3,000 -660 Descending Cleveland Center
04:16PM 41.5075 -81.5842 329° Northwest 101 116 2,200 -660 Descending Cleveland Center
04:17PM 41.5281 -81.6039 324° Northwest 93 107 1,700 -300 Descending Cleveland Center
04:18PM 41.5444 -81.6236 318° Northwest 79 91 1,600 -300 Descending Cleveland Center
04:19PM 41.5339 -81.6511 243° Southwest 75 86 1,200 -480 Descending Cleveland Center
04:20PM 41.5275 -81.6675 242° Southwest 67 77 700 -600 Descending Cleveland Center
04:22PM 41.5175 -81.6833 157° South  Level Estimated
04:29PM 41.5175 -81.6833 333° Northwest  Level Estimated